sensor_id;sensor_type;location;lat;lon;timestamp;P1;durP1;ratioP1;P2;durP2;ratioP2
15408;SDS011;7803;48.130;13.788;2023-08-30T00:00:09;6.00;;;4.70;;
15408;SDS011;7803;48.130;13.788;2023-08-30T00:03:12;5.38;;;4.55;;
15408;SDS011;7803;48.130;13.788;2023-08-30T00:06:14;5.18;;;4.60;;
15408;SDS011;7803;48.130;13.788;2023-08-30T00:09:18;5.03;;;4.43;;
15408;SDS011;7803;48.130;13.788;2023-08-30T00:12:20;5.40;;;4.35;;
15408;SDS011;7803;48.130;13.788;2023-08-30T00:15:22;5.40;;;4.90;;
15408;SDS011;7803;48.130;13.788;2023-08-30T00:18:24;5.72;;;5.13;;
15408;SDS011;7803;48.130;13.788;2023-08-30T00:21:26;6.10;;;5.50;;
15408;SDS011;7803;48.130;13.788;2023-08-30T00:24:29;5.82;;;5.00;;
15408;SDS011;7803;48.130;13.788;2023-08-30T00:30:42;5.78;;;5.18;;
15408;SDS011;7803;48.130;13.788;2023-08-30T00:33:58;7.25;;;5.25;;
15408;SDS011;7803;48.130;13.788;2023-08-30T00:37:13;6.05;;;5.03;;
15408;SDS011;7803;48.130;13.788;2023-08-30T11:38:04;4.50;;;4.10;;
15408;SDS011;7803;48.130;13.788;2023-08-30T11:41:06;4.32;;;3.92;;
15408;SDS011;7803;48.130;13.788;2023-08-30T11:44:09;4.10;;;3.80;;
15408;SDS011;7803;48.130;13.788;2023-08-30T11:47:11;4.30;;;3.90;;
15408;SDS011;7803;48.130;13.788;2023-08-30T11:50:19;3.85;;;3.55;;
15408;SDS011;7803;48.130;13.788;2023-08-30T11:53:23;4.40;;;4.00;;
15408;SDS011;7803;48.130;13.788;2023-08-30T11:56:25;4.85;;;4.35;;
15408;SDS011;7803;48.130;13.788;2023-08-30T11:59:27;4.43;;;4.03;;
15408;SDS011;7803;48.130;13.788;2023-08-30T12:02:29;4.07;;;3.78;;
15408;SDS011;7803;48.130;13.788;2023-08-30T12:05:31;4.10;;;3.80;;
15408;SDS011;7803;48.130;13.788;2023-08-30T12:08:38;4.50;;;4.10;;
15408;SDS011;7803;48.130;13.788;2023-08-30T12:11:40;4.80;;;4.30;;
15408;SDS011;7803;48.130;13.788;2023-08-30T12:14:42;4.22;;;3.80;;
15408;SDS011;7803;48.130;13.788;2023-08-30T12:17:44;4.30;;;3.90;;
15408;SDS011;7803;48.130;13.788;2023-08-30T12:20:52;4.15;;;3.75;;
15408;SDS011;7803;48.130;13.788;2023-08-30T12:24:00;4.00;;;3.70;;
15408;SDS011;7803;48.130;13.788;2023-08-30T12:27:03;3.95;;;3.65;;
15408;SDS011;7803;48.130;13.788;2023-08-30T12:30:06;4.10;;;3.80;;
15408;SDS011;7803;48.130;13.788;2023-08-30T12:33:09;4.10;;;3.80;;
15408;SDS011;7803;48.130;13.788;2023-08-30T12:36:11;3.97;;;3.65;;
15408;SDS011;7803;48.130;13.788;2023-08-30T12:39:14;3.97;;;3.67;;
15408;SDS011;7803;48.130;13.788;2023-08-30T12:42:16;4.40;;;4.00;;
15408;SDS011;7803;48.130;13.788;2023-08-30T12:45:18;4.20;;;3.80;;
15408;SDS011;7803;48.130;13.788;2023-08-30T12:48:20;3.58;;;3.28;;
15408;SDS011;7803;48.130;13.788;2023-08-30T12:51:23;4.15;;;3.67;;
15408;SDS011;7803;48.130;13.788;2023-08-30T12:54:26;3.95;;;3.50;;
15408;SDS011;7803;48.130;13.788;2023-08-30T12:57:28;3.40;;;3.10;;
15408;SDS011;7803;48.130;13.788;2023-08-30T13:00:30;3.72;;;3.25;;
15408;SDS011;7803;48.130;13.788;2023-08-30T13:03:33;4.57;;;3.80;;
15408;SDS011;7803;48.130;13.788;2023-08-30T13:06:35;3.28;;;2.97;;
15408;SDS011;7803;48.130;13.788;2023-08-30T13:09:38;3.50;;;3.20;;
15408;SDS011;7803;48.130;13.788;2023-08-30T13:12:40;3.78;;;3.40;;
15408;SDS011;7803;48.130;13.788;2023-08-30T13:15:42;3.67;;;3.38;;
15408;SDS011;7803;48.130;13.788;2023-08-30T13:18:45;3.60;;;3.30;;
15408;SDS011;7803;48.130;13.788;2023-08-30T13:21:47;3.58;;;3.28;;
15408;SDS011;7803;48.130;13.788;2023-08-30T13:24:51;3.40;;;3.10;;
15408;SDS011;7803;48.130;13.788;2023-08-30T13:27:53;3.40;;;3.10;;
15408;SDS011;7803;48.130;13.788;2023-08-30T13:30:56;3.45;;;3.15;;
15408;SDS011;7803;48.130;13.788;2023-08-30T13:33:59;3.72;;;3.42;;
15408;SDS011;7803;48.130;13.788;2023-08-30T13:37:02;3.42;;;3.13;;
15408;SDS011;7803;48.130;13.788;2023-08-30T13:40:07;3.50;;;3.20;;
15408;SDS011;7803;48.130;13.788;2023-08-30T13:43:10;3.40;;;3.10;;
15408;SDS011;7803;48.130;13.788;2023-08-30T13:46:13;3.53;;;3.22;;
15408;SDS011;7803;48.130;13.788;2023-08-30T13:49:16;3.13;;;2.72;;
15408;SDS011;7803;48.130;13.788;2023-08-30T13:52:20;3.40;;;3.10;;
15408;SDS011;7803;48.130;13.788;2023-08-30T13:55:25;3.33;;;3.03;;
15408;SDS011;7803;48.130;13.788;2023-08-30T13:58:28;3.28;;;3.03;;
15408;SDS011;7803;48.130;13.788;2023-08-30T14:01:31;3.50;;;3.20;;
15408;SDS011;7803;48.130;13.788;2023-08-30T14:04:35;3.83;;;3.40;;
15408;SDS011;7803;48.130;13.788;2023-08-30T14:07:37;3.40;;;3.10;;
15408;SDS011;7803;48.130;13.788;2023-08-30T14:10:41;3.70;;;3.38;;
15408;SDS011;7803;48.130;13.788;2023-08-30T14:13:46;3.45;;;3.15;;
15408;SDS011;7803;48.130;13.788;2023-08-30T14:16:49;3.53;;;3.22;;
15408;SDS011;7803;48.130;13.788;2023-08-30T14:19:52;3.40;;;3.10;;
15408;SDS011;7803;48.130;13.788;2023-08-30T14:22:54;3.40;;;3.10;;
15408;SDS011;7803;48.130;13.788;2023-08-30T14:25:58;3.50;;;3.20;;
15408;SDS011;7803;48.130;13.788;2023-08-30T14:29:01;3.63;;;2.95;;
15408;SDS011;7803;48.130;13.788;2023-08-30T14:32:04;3.50;;;3.20;;
15408;SDS011;7803;48.130;13.788;2023-08-30T14:35:08;4.20;;;3.35;;
15408;SDS011;7803;48.130;13.788;2023-08-30T14:38:12;3.00;;;2.70;;
15408;SDS011;7803;48.130;13.788;2023-08-30T14:41:17;3.30;;;3.00;;
15408;SDS011;7803;48.130;13.788;2023-08-30T14:44:20;3.17;;;2.97;;
15408;SDS011;7803;48.130;13.788;2023-08-30T14:47:26;3.78;;;3.45;;
15408;SDS011;7803;48.130;13.788;2023-08-30T14:50:31;3.45;;;3.15;;
15408;SDS011;7803;48.130;13.788;2023-08-30T14:53:34;3.40;;;3.10;;
15408;SDS011;7803;48.130;13.788;2023-08-30T14:56:39;3.30;;;3.00;;
15408;SDS011;7803;48.130;13.788;2023-08-30T14:59:43;3.22;;;3.03;;
15408;SDS011;7803;48.130;13.788;2023-08-30T15:02:47;3.30;;;3.00;;
15408;SDS011;7803;48.130;13.788;2023-08-30T15:05:52;3.22;;;3.00;;
15408;SDS011;7803;48.130;13.788;2023-08-30T15:08:56;3.30;;;3.00;;
15408;SDS011;7803;48.130;13.788;2023-08-30T15:12:02;3.40;;;3.10;;
15408;SDS011;7803;48.130;13.788;2023-08-30T15:15:07;3.13;;;2.90;;
15408;SDS011;7803;48.130;13.788;2023-08-30T15:18:11;3.15;;;2.90;;
15408;SDS011;7803;48.130;13.788;2023-08-30T15:21:15;3.65;;;3.35;;
15408;SDS011;7803;48.130;13.788;2023-08-30T15:24:18;3.30;;;3.00;;
15408;SDS011;7803;48.130;13.788;2023-08-30T15:27:23;6.38;;;3.38;;
15408;SDS011;7803;48.130;13.788;2023-08-30T15:30:27;3.42;;;2.90;;
15408;SDS011;7803;48.130;13.788;2023-08-30T15:33:31;6.22;;;3.60;;
15408;SDS011;7803;48.130;13.788;2023-08-30T15:36:35;3.88;;;3.28;;
15408;SDS011;7803;48.130;13.788;2023-08-30T15:39:38;4.07;;;2.80;;
15408;SDS011;7803;48.130;13.788;2023-08-30T15:42:44;3.40;;;3.10;;
15408;SDS011;7803;48.130;13.788;2023-08-30T15:45:47;3.33;;;3.03;;
15408;SDS011;7803;48.130;13.788;2023-08-30T15:48:51;2.78;;;2.58;;
15408;SDS011;7803;48.130;13.788;2023-08-30T15:51:55;4.15;;;2.90;;
15408;SDS011;7803;48.130;13.788;2023-08-30T15:54:59;3.30;;;3.00;;
15408;SDS011;7803;48.130;13.788;2023-08-30T15:58:05;3.72;;;3.10;;
15408;SDS011;7803;48.130;13.788;2023-08-30T16:01:09;5.07;;;3.03;;
15408;SDS011;7803;48.130;13.788;2023-08-30T16:04:13;4.45;;;3.08;;
15408;SDS011;7803;48.130;13.788;2023-08-30T16:07:19;3.55;;;3.20;;
15408;SDS011;7803;48.130;13.788;2023-08-30T16:10:24;3.00;;;2.72;;
15408;SDS011;7803;48.130;13.788;2023-08-30T16:13:32;2.92;;;2.70;;
15408;SDS011;7803;48.130;13.788;2023-08-30T16:16:37;3.35;;;2.78;;
15408;SDS011;7803;48.130;13.788;2023-08-30T16:19:45;3.60;;;2.78;;
15408;SDS011;7803;48.130;13.788;2023-08-30T16:22:49;5.13;;;3.13;;
15408;SDS011;7803;48.130;13.788;2023-08-30T16:25:58;4.35;;;2.92;;
15408;SDS011;7803;48.130;13.788;2023-08-30T16:29:06;3.75;;;2.90;;
15408;SDS011;7803;48.130;13.788;2023-08-30T16:32:11;3.45;;;2.65;;
15408;SDS011;7803;48.130;13.788;2023-08-30T16:35:18;6.35;;;3.03;;
15408;SDS011;7803;48.130;13.788;2023-08-30T16:38:26;4.45;;;3.00;;
15408;SDS011;7803;48.130;13.788;2023-08-30T16:41:30;3.15;;;2.83;;
15408;SDS011;7803;48.130;13.788;2023-08-30T16:44:37;4.22;;;2.80;;
15408;SDS011;7803;48.130;13.788;2023-08-30T16:47:41;3.90;;;2.60;;
15408;SDS011;7803;48.130;13.788;2023-08-30T16:50:48;5.10;;;3.00;;
15408;SDS011;7803;48.130;13.788;2023-08-30T16:53:54;3.33;;;2.72;;
15408;SDS011;7803;48.130;13.788;2023-08-30T16:57:00;3.92;;;2.60;;
15408;SDS011;7803;48.130;13.788;2023-08-30T17:00:08;3.28;;;2.70;;
15408;SDS011;7803;48.130;13.788;2023-08-30T17:03:15;4.05;;;2.70;;
15408;SDS011;7803;48.130;13.788;2023-08-30T17:06:22;4.70;;;2.80;;
15408;SDS011;7803;48.130;13.788;2023-08-30T17:09:31;3.83;;;2.65;;
15408;SDS011;7803;48.130;13.788;2023-08-30T17:12:40;4.85;;;2.80;;
15408;SDS011;7803;48.130;13.788;2023-08-30T17:15:47;4.75;;;2.72;;
15408;SDS011;7803;48.130;13.788;2023-08-30T17:18:52;5.82;;;3.08;;
15408;SDS011;7803;48.130;13.788;2023-08-30T17:21:56;9.52;;;3.40;;
15408;SDS011;7803;48.130;13.788;2023-08-30T17:25:02;10.77;;;4.30;;
15408;SDS011;7803;48.130;13.788;2023-08-30T17:28:07;7.05;;;2.88;;
15408;SDS011;7803;48.130;13.788;2023-08-30T17:31:18;5.78;;;3.00;;
15408;SDS011;7803;48.130;13.788;2023-08-30T17:34:27;7.75;;;3.10;;
15408;SDS011;7803;48.130;13.788;2023-08-30T17:37:32;6.95;;;2.88;;
15408;SDS011;7803;48.130;13.788;2023-08-30T17:40:42;7.60;;;3.72;;
15408;SDS011;7803;48.130;13.788;2023-08-30T17:43:48;7.78;;;3.38;;
15408;SDS011;7803;48.130;13.788;2023-08-30T17:47:03;11.43;;;3.47;;
15408;SDS011;7803;48.130;13.788;2023-08-30T17:50:08;7.13;;;3.40;;
15408;SDS011;7803;48.130;13.788;2023-08-30T17:53:17;8.30;;;3.47;;
15408;SDS011;7803;48.130;13.788;2023-08-30T17:56:22;7.05;;;3.50;;
15408;SDS011;7803;48.130;13.788;2023-08-30T17:59:28;6.43;;;3.40;;
15408;SDS011;7803;48.130;13.788;2023-08-30T18:02:37;6.25;;;3.30;;
15408;SDS011;7803;48.130;13.788;2023-08-30T18:05:43;7.95;;;3.33;;
15408;SDS011;7803;48.130;13.788;2023-08-30T18:12:12;6.18;;;3.28;;
15408;SDS011;7803;48.130;13.788;2023-08-30T18:15:20;5.78;;;3.50;;
15408;SDS011;7803;48.130;13.788;2023-08-30T18:18:26;7.43;;;3.15;;
15408;SDS011;7803;48.130;13.788;2023-08-30T18:21:31;9.40;;;3.60;;
15408;SDS011;7803;48.130;13.788;2023-08-30T18:24:39;5.80;;;3.35;;
15408;SDS011;7803;48.130;13.788;2023-08-30T18:27:50;5.45;;;3.05;;
15408;SDS011;7803;48.130;13.788;2023-08-30T18:30:59;4.55;;;3.20;;
15408;SDS011;7803;48.130;13.788;2023-08-30T18:34:15;7.63;;;3.00;;
15408;SDS011;7803;48.130;13.788;2023-08-30T18:37:19;3.10;;;2.78;;
15408;SDS011;7803;48.130;13.788;2023-08-30T18:40:24;3.05;;;2.47;;
15408;SDS011;7803;48.130;13.788;2023-08-30T18:43:34;3.78;;;2.60;;
15408;SDS011;7803;48.130;13.788;2023-08-30T18:46:40;3.95;;;2.75;;
15408;SDS011;7803;48.130;13.788;2023-08-30T18:49:47;3.67;;;2.88;;
15408;SDS011;7803;48.130;13.788;2023-08-30T18:52:51;4.95;;;2.58;;
15408;SDS011;7803;48.130;13.788;2023-08-30T18:56:00;3.58;;;2.65;;
15408;SDS011;7803;48.130;13.788;2023-08-30T18:59:15;2.65;;;2.45;;
15408;SDS011;7803;48.130;13.788;2023-08-30T19:02:21;4.35;;;2.38;;
15408;SDS011;7803;48.130;13.788;2023-08-30T19:05:29;3.97;;;2.50;;
15408;SDS011;7803;48.130;13.788;2023-08-30T19:08:38;2.70;;;2.50;;
15408;SDS011;7803;48.130;13.788;2023-08-30T19:11:43;2.97;;;2.60;;
15408;SDS011;7803;48.130;13.788;2023-08-30T19:14:51;3.53;;;2.60;;
15408;SDS011;7803;48.130;13.788;2023-08-30T19:17:58;3.50;;;2.78;;
15408;SDS011;7803;48.130;13.788;2023-08-30T19:21:05;2.85;;;2.53;;
15408;SDS011;7803;48.130;13.788;2023-08-30T19:24:15;2.95;;;2.50;;
15408;SDS011;7803;48.130;13.788;2023-08-30T19:27:22;2.97;;;2.50;;
15408;SDS011;7803;48.130;13.788;2023-08-30T19:30:29;3.10;;;2.40;;
15408;SDS011;7803;48.130;13.788;2023-08-30T19:33:36;3.15;;;2.28;;
15408;SDS011;7803;48.130;13.788;2023-08-30T19:36:46;4.07;;;2.95;;
15408;SDS011;7803;48.130;13.788;2023-08-30T19:39:51;2.67;;;2.42;;
15408;SDS011;7803;48.130;13.788;2023-08-30T19:42:55;2.50;;;2.30;;
15408;SDS011;7803;48.130;13.788;2023-08-30T19:46:03;3.22;;;2.72;;
15408;SDS011;7803;48.130;13.788;2023-08-30T19:49:08;2.80;;;2.50;;
15408;SDS011;7803;48.130;13.788;2023-08-30T19:52:14;2.53;;;2.33;;
15408;SDS011;7803;48.130;13.788;2023-08-30T19:55:20;3.33;;;2.33;;
15408;SDS011;7803;48.130;13.788;2023-08-30T19:58:25;2.58;;;2.35;;
15408;SDS011;7803;48.130;13.788;2023-08-30T20:01:30;3.13;;;2.20;;
15408;SDS011;7803;48.130;13.788;2023-08-30T20:04:37;2.65;;;2.40;;
15408;SDS011;7803;48.130;13.788;2023-08-30T20:07:49;2.90;;;2.45;;
15408;SDS011;7803;48.130;13.788;2023-08-30T20:10:59;2.92;;;2.63;;
15408;SDS011;7803;48.130;13.788;2023-08-30T20:14:17;2.58;;;2.30;;
15408;SDS011;7803;48.130;13.788;2023-08-30T20:17:23;3.90;;;2.55;;
15408;SDS011;7803;48.130;13.788;2023-08-30T20:20:33;2.97;;;2.40;;
15408;SDS011;7803;48.130;13.788;2023-08-30T20:23:41;2.33;;;2.13;;
15408;SDS011;7803;48.130;13.788;2023-08-30T20:26:47;3.75;;;2.72;;
15408;SDS011;7803;48.130;13.788;2023-08-30T20:29:55;2.97;;;2.67;;
15408;SDS011;7803;48.130;13.788;2023-08-30T20:32:59;2.55;;;2.35;;
15408;SDS011;7803;48.130;13.788;2023-08-30T20:36:06;3.13;;;2.50;;
15408;SDS011;7803;48.130;13.788;2023-08-30T20:39:13;2.78;;;2.55;;
15408;SDS011;7803;48.130;13.788;2023-08-30T20:42:17;2.70;;;2.50;;
15408;SDS011;7803;48.130;13.788;2023-08-30T20:45:30;4.07;;;2.72;;
15408;SDS011;7803;48.130;13.788;2023-08-30T20:48:36;2.67;;;2.47;;
15408;SDS011;7803;48.130;13.788;2023-08-30T20:51:40;3.22;;;2.60;;
15408;SDS011;7803;48.130;13.788;2023-08-30T20:54:47;3.15;;;2.78;;
15408;SDS011;7803;48.130;13.788;2023-08-30T20:57:53;3.33;;;2.97;;
15408;SDS011;7803;48.130;13.788;2023-08-30T21:00:57;3.22;;;2.50;;
15408;SDS011;7803;48.130;13.788;2023-08-30T21:04:01;3.15;;;2.80;;
15408;SDS011;7803;48.130;13.788;2023-08-30T21:07:03;2.92;;;2.60;;
15408;SDS011;7803;48.130;13.788;2023-08-30T21:10:07;4.07;;;3.35;;
15408;SDS011;7803;48.130;13.788;2023-08-30T21:13:09;3.15;;;2.85;;
15408;SDS011;7803;48.130;13.788;2023-08-30T21:16:11;3.35;;;3.05;;
15408;SDS011;7803;48.130;13.788;2023-08-30T21:19:13;3.45;;;3.15;;
15408;SDS011;7803;48.130;13.788;2023-08-30T21:22:15;3.20;;;2.90;;
15408;SDS011;7803;48.130;13.788;2023-08-30T21:25:19;4.45;;;3.13;;
15408;SDS011;7803;48.130;13.788;2023-08-30T21:28:23;3.58;;;3.28;;
15408;SDS011;7803;48.130;13.788;2023-08-30T21:31:25;4.05;;;3.38;;
15408;SDS011;7803;48.130;13.788;2023-08-30T21:34:27;3.67;;;3.38;;
15408;SDS011;7803;48.130;13.788;2023-08-30T21:37:29;4.35;;;3.95;;
15408;SDS011;7803;48.130;13.788;2023-08-30T21:43:36;4.25;;;3.85;;
15408;SDS011;7803;48.130;13.788;2023-08-30T21:46:39;4.18;;;3.58;;
15408;SDS011;7803;48.130;13.788;2023-08-30T21:49:40;4.35;;;3.95;;
15408;SDS011;7803;48.130;13.788;2023-08-30T21:52:42;4.28;;;3.88;;
15408;SDS011;7803;48.130;13.788;2023-08-30T21:55:46;5.15;;;4.70;;
15408;SDS011;7803;48.130;13.788;2023-08-30T21:58:48;4.60;;;4.20;;
15408;SDS011;7803;48.130;13.788;2023-08-30T22:01:53;4.72;;;4.00;;
15408;SDS011;7803;48.130;13.788;2023-08-30T22:04:55;5.10;;;4.60;;
15408;SDS011;7803;48.130;13.788;2023-08-30T22:07:57;4.88;;;4.45;;
15408;SDS011;7803;48.130;13.788;2023-08-30T22:11:05;4.90;;;4.40;;
15408;SDS011;7803;48.130;13.788;2023-08-30T22:14:08;5.57;;;4.90;;
15408;SDS011;7803;48.130;13.788;2023-08-30T22:17:10;5.03;;;4.60;;
15408;SDS011;7803;48.130;13.788;2023-08-30T22:20:13;5.47;;;4.97;;
15408;SDS011;7803;48.130;13.788;2023-08-30T22:23:16;5.90;;;5.32;;
15408;SDS011;7803;48.130;13.788;2023-08-30T22:26:19;6.35;;;5.68;;
15408;SDS011;7803;48.130;13.788;2023-08-30T22:29:21;5.75;;;5.25;;
15408;SDS011;7803;48.130;13.788;2023-08-30T22:32:23;7.10;;;5.93;;
15408;SDS011;7803;48.130;13.788;2023-08-30T22:35:25;6.47;;;5.88;;
15408;SDS011;7803;48.130;13.788;2023-08-30T22:38:27;6.72;;;5.95;;
15408;SDS011;7803;48.130;13.788;2023-08-30T22:41:31;6.88;;;5.80;;
15408;SDS011;7803;48.130;13.788;2023-08-30T22:44:33;6.85;;;6.15;;
15408;SDS011;7803;48.130;13.788;2023-08-30T22:47:35;6.30;;;5.70;;
15408;SDS011;7803;48.130;13.788;2023-08-30T22:50:37;6.82;;;6.13;;
15408;SDS011;7803;48.130;13.788;2023-08-30T22:53:39;5.80;;;5.25;;
15408;SDS011;7803;48.130;13.788;2023-08-30T22:56:43;7.10;;;6.40;;
15408;SDS011;7803;48.130;13.788;2023-08-30T22:59:45;6.53;;;5.22;;
15408;SDS011;7803;48.130;13.788;2023-08-30T23:02:47;6.22;;;5.63;;
15408;SDS011;7803;48.130;13.788;2023-08-30T23:05:50;7.18;;;6.47;;
15408;SDS011;7803;48.130;13.788;2023-08-30T23:08:52;7.25;;;6.55;;
15408;SDS011;7803;48.130;13.788;2023-08-30T23:11:55;7.13;;;6.43;;
15408;SDS011;7803;48.130;13.788;2023-08-30T23:14:57;7.00;;;6.30;;
15408;SDS011;7803;48.130;13.788;2023-08-30T23:17:59;7.25;;;6.63;;
15408;SDS011;7803;48.130;13.788;2023-08-30T23:21:01;7.78;;;7.07;;
15408;SDS011;7803;48.130;13.788;2023-08-30T23:24:04;7.97;;;7.18;;
15408;SDS011;7803;48.130;13.788;2023-08-30T23:27:07;8.10;;;7.30;;
15408;SDS011;7803;48.130;13.788;2023-08-30T23:30:10;7.88;;;7.07;;
15408;SDS011;7803;48.130;13.788;2023-08-30T23:33:13;8.45;;;6.78;;
15408;SDS011;7803;48.130;13.788;2023-08-30T23:36:15;8.02;;;7.22;;
15408;SDS011;7803;48.130;13.788;2023-08-30T23:39:17;7.50;;;6.68;;
15408;SDS011;7803;48.130;13.788;2023-08-30T23:42:20;7.88;;;7.07;;
15408;SDS011;7803;48.130;13.788;2023-08-30T23:45:22;8.00;;;7.25;;
15408;SDS011;7803;48.130;13.788;2023-08-30T23:48:25;8.20;;;7.38;;
15408;SDS011;7803;48.130;13.788;2023-08-30T23:51:27;9.55;;;8.35;;
15408;SDS011;7803;48.130;13.788;2023-08-30T23:54:29;7.53;;;6.78;;
15408;SDS011;7803;48.130;13.788;2023-08-30T23:57:33;7.97;;;7.18;;
